createdAt,value
2023-05-24T00:00:28.206Z,1100.18
2023-05-24T00:01:28.235Z,1100.18
2023-05-24T00:02:28.400Z,1100.18
2023-05-24T00:03:28.354Z,1100.18
2023-05-24T00:04:28.192Z,1100.18
2023-05-24T00:05:28.146Z,1100.18
2023-05-24T00:06:31.123Z,1100.18
2023-05-24T00:07:31.120Z,1100.18
2023-05-24T00:08:28.129Z,1100.18
2023-05-24T00:09:28.075Z,1100.18
2023-05-24T00:10:28.108Z,1100.18
2023-05-24T00:11:28.063Z,1100.18
2023-05-24T00:12:28.048Z,1100.18
2023-05-24T00:13:28.062Z,1100.18
2023-05-24T00:14:28.022Z,1100.18
2023-05-24T00:15:28.030Z,1100.18
2023-05-24T00:16:28.033Z,1100.18
2023-05-24T00:17:28.013Z,1100.18
2023-05-24T00:18:27.995Z,1100.18
2023-05-24T00:19:28.679Z,1100.18
2023-05-24T00:20:27.975Z,1100.18
2023-05-24T00:21:27.922Z,1100.18
2023-05-24T00:22:27.907Z,1100.18
2023-05-24T00:23:27.943Z,1100.18
2023-05-24T00:24:27.883Z,1100.18
2023-05-24T00:25:27.865Z,1100.18
2023-05-24T00:26:30.883Z,1100.18
2023-05-24T00:27:30.848Z,1100.18
2023-05-24T00:28:27.838Z,1100.18
2023-05-24T00:29:30.788Z,1100.18
2023-05-24T00:30:27.793Z,1100.18
2023-05-24T00:31:27.793Z,1100.18
2023-05-24T00:32:27.786Z,1100.18
2023-05-24T00:33:27.793Z,1100.18
2023-05-24T00:34:27.749Z,1101.46
2023-05-24T00:35:27.729Z,1100.18
2023-05-24T00:36:27.746Z,1100.18
2023-05-24T00:37:27.702Z,1100.18
2023-05-24T00:38:27.707Z,1101.46
2023-05-24T00:39:27.671Z,1100.18
2023-05-24T00:40:27.657Z,1100.18
2023-05-24T00:41:27.695Z,1100.18
2023-05-24T00:42:27.647Z,1100.18
2023-05-24T00:43:27.620Z,1100.18
2023-05-24T00:44:27.601Z,1100.18
2023-05-24T00:45:27.588Z,1100.18
2023-05-24T00:46:30.807Z,1100.18
2023-05-24T00:47:30.597Z,1100.18
2023-05-24T00:48:27.567Z,1100.18
2023-05-24T00:49:27.547Z,1100.18
2023-05-24T00:50:27.527Z,1100.18
2023-05-24T00:51:27.509Z,1101.46
2023-05-24T00:52:27.530Z,1101.46
2023-05-24T00:53:27.510Z,1100.18
2023-05-24T00:54:27.463Z,1100.18
2023-05-24T00:55:27.479Z,1101.46
2023-05-24T00:56:27.439Z,1100.18
2023-05-24T00:57:27.428Z,1100.18
2023-05-24T00:58:27.441Z,1101.46
2023-05-24T00:59:27.407Z,1101.46
2023-05-24T01:00:27.392Z,1100.18
2023-05-24T01:01:27.398Z,1101.46
2023-05-24T01:02:27.411Z,1100.18
2023-05-24T01:03:27.461Z,1101.46
2023-05-24T01:04:27.334Z,1101.46
2023-05-24T01:05:27.329Z,1100.18
2023-05-24T01:06:30.306Z,1100.18
2023-05-24T01:07:30.293Z,1101.46
2023-05-24T01:08:27.278Z,1100.18
2023-05-24T01:09:27.288Z,1101.46
2023-05-24T01:10:27.262Z,1101.46
2023-05-24T01:11:27.250Z,1101.46
2023-05-24T01:12:27.229Z,1101.46
2023-05-24T01:13:27.214Z,1101.46
2023-05-24T01:14:27.229Z,1101.46
2023-05-24T01:15:27.181Z,1101.46
2023-05-24T01:16:27.187Z,1101.46
2023-05-24T01:17:27.165Z,1101.46
2023-05-24T01:18:27.141Z,1101.46
2023-05-24T01:19:27.132Z,1100.18
2023-05-24T01:20:27.169Z,1100.18
2023-05-24T01:21:27.103Z,1100.18
2023-05-24T01:22:27.081Z,1100.18
2023-05-24T01:23:27.075Z,1100.18
2023-05-24T01:24:27.077Z,1100.18
2023-05-24T01:25:27.084Z,1100.18
2023-05-24T01:26:30.033Z,1101.46
2023-05-24T01:27:30.024Z,1100.18
2023-05-24T01:28:27.033Z,1100.18
2023-05-24T01:29:26.999Z,1100.18
2023-05-24T01:30:26.982Z,1100.18
2023-05-24T01:31:27.065Z,1100.18
2023-05-24T01:32:27.014Z,1101.46
2023-05-24T01:33:26.939Z,1101.46
2023-05-24T01:34:26.936Z,1101.46
2023-05-24T01:35:26.914Z,1101.46
2023-05-24T01:36:26.894Z,1101.46
2023-05-24T01:37:26.938Z,1101.46
2023-05-24T01:38:26.866Z,1101.46
2023-05-24T01:39:26.923Z,1101.46
2023-05-24T01:40:26.864Z,1101.46
2023-05-24T01:41:26.845Z,1101.46
2023-05-24T01:42:26.815Z,1101.46
2023-05-24T01:43:26.821Z,1101.46
2023-05-24T01:44:26.792Z,1101.46
2023-05-24T01:45:26.772Z,1101.46
2023-05-24T01:46:29.781Z,1101.46
2023-05-24T01:47:29.789Z,1101.46
2023-05-24T01:48:26.724Z,1101.46
2023-05-24T01:49:28.729Z,1101.46
2023-05-24T01:50:26.706Z,1100.18
2023-05-24T01:51:26.687Z,1100.18
2023-05-24T01:52:26.694Z,1100.18
2023-05-24T01:53:26.663Z,1100.18
2023-05-24T01:54:26.651Z,1100.18
2023-05-24T01:55:26.660Z,1101.46
2023-05-24T01:56:26.616Z,1101.46
2023-05-24T01:57:26.607Z,1101.46
2023-05-24T01:58:26.590Z,1101.46
2023-05-24T01:59:26.597Z,1101.46
2023-05-24T02:00:26.598Z,1101.46
2023-05-24T02:01:26.610Z,1100.18
2023-05-24T02:02:26.590Z,1100.18
2023-05-24T02:03:26.563Z,1100.18
2023-05-24T02:04:26.519Z,1100.18
2023-05-24T02:05:26.527Z,1100.18
2023-05-24T02:06:29.535Z,1100.18
2023-05-24T02:07:29.537Z,1100.18
2023-05-24T02:08:26.480Z,1100.18
2023-05-24T02:09:26.457Z,1100.18
2023-05-24T02:10:26.433Z,1100.18
2023-05-24T02:11:26.426Z,1101.46
2023-05-24T02:12:26.421Z,1100.18
2023-05-24T02:13:26.391Z,1101.46
2023-05-24T02:14:26.395Z,1101.46
2023-05-24T02:15:26.389Z,1100.18
2023-05-24T02:16:26.372Z,1100.18
2023-05-24T02:17:26.404Z,1100.18
2023-05-24T02:18:26.319Z,1100.18
2023-05-24T02:19:26.312Z,1100.18
2023-05-24T02:20:26.326Z,1101.46
2023-05-24T02:21:26.329Z,1101.46
2023-05-24T02:22:26.273Z,1100.18
2023-05-24T02:23:26.265Z,1100.18
2023-05-24T02:24:26.240Z,1100.18
2023-05-24T02:25:26.236Z,1100.18
2023-05-24T02:26:29.257Z,1101.46
2023-05-24T02:27:29.207Z,1100.18
2023-05-24T02:28:26.221Z,1101.46
2023-05-24T02:29:26.201Z,1101.46
2023-05-24T02:30:26.157Z,1101.46
2023-05-24T02:31:26.200Z,1101.46
2023-05-24T02:32:26.129Z,1100.18
2023-05-24T02:33:26.119Z,1100.18
2023-05-24T02:34:26.142Z,1101.46
2023-05-24T02:35:26.099Z,1101.46
2023-05-24T02:36:26.096Z,1100.18
2023-05-24T02:37:26.071Z,1101.46
2023-05-24T02:38:26.047Z,1100.18
2023-05-24T02:39:26.066Z,1100.18
2023-05-24T02:40:26.031Z,1100.18
2023-05-24T02:41:26.013Z,1100.18
2023-05-24T02:42:25.988Z,1100.18
2023-05-24T02:43:26.008Z,1100.18
2023-05-24T02:44:25.994Z,1100.18
2023-05-24T02:45:25.953Z,1100.18
2023-05-24T02:46:28.988Z,1100.18
2023-05-24T02:47:28.943Z,1100.18
2023-05-24T02:48:25.904Z,1100.18
2023-05-24T02:49:25.926Z,1100.18
2023-05-24T02:50:25.880Z,1100.18
2023-05-24T02:51:25.874Z,1100.18
2023-05-24T02:52:25.856Z,1100.18
2023-05-24T02:53:25.841Z,1100.18
2023-05-24T02:54:25.871Z,1100.18
2023-05-24T02:55:25.883Z,1100.18
2023-05-24T02:56:25.799Z,1100.18
2023-05-24T02:57:25.790Z,1100.18
2023-05-24T02:58:25.772Z,1100.18
2023-05-24T02:59:25.803Z,1100.18
2023-05-24T03:00:25.737Z,1100.18
2023-05-24T03:01:25.797Z,1100.18
2023-05-24T03:02:25.728Z,1100.18
2023-05-24T03:03:25.793Z,1100.18
2023-05-24T03:04:25.685Z,1100.18
2023-05-24T03:05:25.682Z,1100.18
2023-05-24T03:06:28.711Z,1101.46
2023-05-24T03:07:28.669Z,1101.46
2023-05-24T03:08:25.636Z,1101.46
2023-05-24T03:09:25.631Z,1101.46
2023-05-24T03:10:25.613Z,1100.18
2023-05-24T03:11:25.591Z,1101.46
2023-05-24T03:12:25.623Z,1101.46
2023-05-24T03:13:25.585Z,1101.46
2023-05-24T03:14:25.548Z,1101.46
2023-05-24T03:15:25.547Z,1101.46
2023-05-24T03:16:25.554Z,1101.46
2023-05-24T03:17:25.520Z,1101.46
2023-05-24T03:18:25.626Z,1101.46
2023-05-24T03:19:25.484Z,1101.46
2023-05-24T03:20:25.512Z,1101.46
2023-05-24T03:21:25.529Z,1101.46
2023-05-24T03:22:25.452Z,1101.46
2023-05-24T03:23:25.470Z,1101.46
2023-05-24T03:24:25.417Z,1101.46
2023-05-24T03:25:25.407Z,1101.46
2023-05-24T03:26:28.385Z,1101.46
2023-05-24T03:27:28.423Z,1101.46
2023-05-24T03:28:25.367Z,1101.46
2023-05-24T03:29:25.362Z,1101.46
2023-05-24T03:30:25.328Z,1101.46
2023-05-24T03:31:25.364Z,1101.46
2023-05-24T03:32:25.307Z,1101.46
2023-05-24T03:33:25.321Z,1101.46
2023-05-24T03:34:25.278Z,1101.46
2023-05-24T03:35:25.269Z,1101.46
2023-05-24T03:36:25.250Z,1101.46
2023-05-24T03:37:25.249Z,1101.46
2023-05-24T03:38:25.249Z,1101.46
2023-05-24T03:39:25.213Z,1101.46
2023-05-24T03:40:25.195Z,1101.46
2023-05-24T03:41:25.187Z,1101.46
2023-05-24T03:42:25.162Z,1101.46
2023-05-24T03:43:25.178Z,1101.46
2023-05-24T03:44:25.141Z,1101.46
2023-05-24T03:45:37.714Z,1101.46
2023-05-24T03:46:29.170Z,1101.46
2023-05-24T03:47:28.168Z,1101.46
2023-05-24T03:48:25.109Z,1101.46
2023-05-24T03:49:25.070Z,1101.46
2023-05-24T03:50:25.064Z,1101.46
2023-05-24T03:51:25.046Z,1101.46
2023-05-24T03:52:25.034Z,1101.46
2023-05-24T03:53:25.074Z,1101.46
2023-05-24T03:54:25.000Z,1101.46
2023-05-24T03:55:25.005Z,1101.46
2023-05-24T03:56:24.974Z,1101.46
2023-05-24T03:57:24.964Z,1101.46
2023-05-24T03:58:24.967Z,1101.46
2023-05-24T03:59:24.970Z,1101.46
2023-05-24T04:00:24.958Z,1101.46
2023-05-24T04:01:33.284Z,1101.46
2023-05-24T04:02:25.987Z,1101.46
2023-05-24T04:03:25.042Z,1101.46
2023-05-24T04:04:24.957Z,1101.46
2023-05-24T04:05:24.875Z,1101.46
2023-05-24T04:06:27.847Z,1101.46
2023-05-24T04:07:27.822Z,1101.46
2023-05-24T04:08:24.842Z,1101.46
2023-05-24T04:09:24.802Z,1101.46
2023-05-24T04:10:24.816Z,1101.46
2023-05-24T04:11:24.798Z,1101.46
2023-05-24T04:12:24.746Z,1101.46
2023-05-24T04:13:24.735Z,1101.46
2023-05-24T04:14:24.723Z,1101.46
2023-05-24T04:15:24.714Z,1101.46
2023-05-24T04:16:24.761Z,1101.46
2023-05-24T04:17:24.978Z,1101.46
2023-05-24T04:18:24.776Z,1101.46
2023-05-24T04:19:24.671Z,1101.46
2023-05-24T04:20:24.710Z,1101.46
2023-05-24T04:21:24.668Z,1101.46
2023-05-24T04:22:25.796Z,1101.46
2023-05-24T04:23:24.627Z,1101.46
2023-05-24T04:24:24.584Z,1101.46
2023-05-24T04:25:24.575Z,1101.46
2023-05-24T04:26:27.552Z,1101.46
2023-05-24T04:27:27.598Z,1101.46
2023-05-24T04:28:24.540Z,1101.46
2023-05-24T04:29:24.517Z,1101.46
2023-05-24T04:30:24.536Z,1101.46
2023-05-24T04:31:24.577Z,1101.46
2023-05-24T04:32:24.531Z,1101.46
2023-05-24T04:33:24.502Z,1101.46
2023-05-24T04:34:24.489Z,1101.46
2023-05-24T04:35:24.434Z,1101.46
2023-05-24T04:36:24.419Z,1101.46
2023-05-24T04:37:24.413Z,1101.46
2023-05-24T04:38:24.400Z,1101.46
2023-05-24T04:39:24.426Z,1101.46
2023-05-24T04:40:24.365Z,1101.46
2023-05-24T04:41:24.419Z,1101.46
2023-05-24T04:42:24.344Z,1101.46
2023-05-24T04:43:24.379Z,1101.46
2023-05-24T04:44:24.312Z,1101.46
2023-05-24T04:45:24.296Z,1101.46
2023-05-24T04:46:27.398Z,1101.46
2023-05-24T04:47:27.315Z,1101.46
2023-05-24T04:48:24.287Z,1101.46
2023-05-24T04:49:24.304Z,1101.46
2023-05-24T04:50:24.251Z,1101.46
2023-05-24T04:51:24.216Z,1101.46
2023-05-24T04:52:24.197Z,1101.46
2023-05-24T04:53:24.195Z,1101.46
2023-05-24T04:54:24.176Z,1101.46
2023-05-24T04:55:24.219Z,1101.46
2023-05-24T04:56:24.171Z,1101.46
2023-05-24T04:57:24.133Z,1101.46
2023-05-24T04:58:24.122Z,1101.46
2023-05-24T04:59:24.123Z,1101.46
2023-05-24T05:00:24.095Z,1101.46
2023-05-24T05:01:24.183Z,1101.46
2023-05-24T05:02:24.218Z,1101.46
2023-05-24T05:03:24.152Z,1101.46
2023-05-24T05:04:24.033Z,1101.46
2023-05-24T05:05:24.018Z,1101.46
2023-05-24T05:06:27.087Z,1101.46
2023-05-24T05:07:26.992Z,1101.46
2023-05-24T05:08:23.985Z,1101.46
2023-05-24T05:09:23.970Z,1101.46
2023-05-24T05:10:24.068Z,1101.46
2023-05-24T05:11:23.941Z,1101.46
2023-05-24T05:12:23.967Z,1101.46
2023-05-24T05:13:23.928Z,1101.46
2023-05-24T05:14:23.897Z,1101.46
2023-05-24T05:15:23.944Z,1101.46
2023-05-24T05:16:23.913Z,1101.46
2023-05-24T05:17:23.886Z,1101.46
2023-05-24T05:18:23.833Z,1101.46
2023-05-24T05:19:23.832Z,1101.46
2023-05-24T05:20:23.910Z,1101.46
2023-05-24T05:21:23.861Z,1101.46
2023-05-24T05:22:23.785Z,1101.46
2023-05-24T05:23:23.772Z,1101.46
2023-05-24T05:24:23.788Z,1101.46
2023-05-24T05:25:23.749Z,1101.46
2023-05-24T05:26:26.750Z,1101.46
2023-05-24T05:27:26.717Z,1101.46
2023-05-24T05:28:23.740Z,1101.46
2023-05-24T05:29:24.427Z,1101.46
2023-05-24T05:30:23.675Z,1101.46
2023-05-24T05:31:23.658Z,1101.46
2023-05-24T05:32:23.716Z,1101.46
2023-05-24T05:33:23.648Z,1102.73
2023-05-24T05:34:23.656Z,1102.73
2023-05-24T05:35:23.610Z,1102.73
2023-05-24T05:36:23.600Z,1101.46
2023-05-24T05:37:23.578Z,1101.46
2023-05-24T05:38:23.569Z,1101.46
2023-05-24T05:39:23.572Z,1101.46
2023-05-24T05:40:23.541Z,1101.46
2023-05-24T05:41:23.530Z,1102.73
2023-05-24T05:42:23.521Z,1101.46
2023-05-24T05:43:23.495Z,1101.46
2023-05-24T05:44:23.500Z,1101.46
2023-05-24T05:45:23.466Z,1101.46
2023-05-24T05:46:26.573Z,1101.46
2023-05-24T05:47:26.473Z,1101.46
2023-05-24T05:48:23.429Z,1101.46
2023-05-24T05:49:23.450Z,1101.46
2023-05-24T05:50:23.490Z,1101.46
2023-05-24T05:51:23.384Z,1101.46
2023-05-24T05:52:23.383Z,1101.46
2023-05-24T05:53:23.362Z,1101.46
2023-05-24T05:54:23.404Z,1101.46
2023-05-24T05:55:23.324Z,1101.46
2023-05-24T05:56:23.318Z,1101.46
2023-05-24T05:57:23.302Z,1101.46
2023-05-24T05:58:23.299Z,1101.46
2023-05-24T05:59:23.273Z,1101.46
2023-05-24T06:00:23.290Z,1101.46
2023-05-24T06:01:23.243Z,1101.46
2023-05-24T06:02:23.290Z,1101.46
2023-05-24T06:03:23.379Z,1101.46
2023-05-24T06:04:23.251Z,1101.46
2023-05-24T06:05:23.215Z,1101.46
2023-05-24T06:06:26.183Z,1101.46
2023-05-24T06:07:26.163Z,1101.46
2023-05-24T06:08:23.150Z,1101.46
2023-05-24T06:09:23.138Z,1101.46
2023-05-24T06:10:23.177Z,1101.46
2023-05-24T06:11:23.113Z,1101.46
2023-05-24T06:12:23.100Z,1101.46
2023-05-24T06:13:23.080Z,1101.46
2023-05-24T06:14:23.075Z,1101.46
2023-05-24T06:15:23.070Z,1101.46
2023-05-24T06:16:23.148Z,1101.46
2023-05-24T06:17:23.064Z,1101.46
2023-05-24T06:18:23.011Z,1101.46
2023-05-24T06:19:23.007Z,1101.46
2023-05-24T06:20:23.038Z,1101.46
2023-05-24T06:21:22.960Z,1101.46
2023-05-24T06:22:23.003Z,1101.46
2023-05-24T06:23:22.941Z,1101.46
2023-05-24T06:24:22.971Z,1101.46
2023-05-24T06:25:22.909Z,1101.46
2023-05-24T06:26:25.925Z,1101.46
2023-05-24T06:27:25.918Z,1101.46
2023-05-24T06:28:22.873Z,1101.46
2023-05-24T06:29:22.981Z,1101.46
2023-05-24T06:30:22.940Z,1101.46
2023-05-24T06:31:22.954Z,1101.46
2023-05-24T06:32:22.898Z,1102.73
2023-05-24T06:33:22.799Z,1102.73
2023-05-24T06:34:22.794Z,1101.46
2023-05-24T06:35:22.779Z,1101.46
2023-05-24T06:36:22.764Z,1101.46
2023-05-24T06:37:22.741Z,1101.46
2023-05-24T06:38:22.776Z,1101.46
2023-05-24T06:39:22.723Z,1101.46
2023-05-24T06:40:22.709Z,1101.46
2023-05-24T06:41:22.682Z,1101.46
2023-05-24T06:42:22.697Z,1101.46
2023-05-24T06:43:22.679Z,1101.46
2023-05-24T06:44:25.145Z,1102.73
2023-05-24T06:45:22.630Z,1101.46
2023-05-24T06:46:25.661Z,1101.46
2023-05-24T06:47:25.767Z,1102.73
2023-05-24T06:48:22.766Z,1102.73
2023-05-24T06:49:22.580Z,1102.73
2023-05-24T06:50:22.596Z,1102.73
2023-05-24T06:51:22.599Z,1102.73
2023-05-24T06:52:22.539Z,1102.73
2023-05-24T06:53:22.573Z,1101.46
2023-05-24T06:54:22.548Z,1102.73
2023-05-24T06:55:22.491Z,1101.46
2023-05-24T06:56:22.486Z,1102.73
2023-05-24T06:57:22.503Z,1102.73
2023-05-24T06:58:22.456Z,1102.73
2023-05-24T06:59:22.465Z,1102.73
2023-05-24T07:00:22.477Z,1102.73
2023-05-24T07:01:22.479Z,1102.73
2023-05-24T07:02:22.452Z,1102.73
2023-05-24T07:03:22.397Z,1102.73
2023-05-24T07:04:22.432Z,1102.73
2023-05-24T07:05:22.387Z,1102.73
2023-05-24T07:06:25.348Z,1102.73
2023-05-24T07:07:25.335Z,1102.73
2023-05-24T07:08:22.314Z,1102.73
2023-05-24T07:09:22.344Z,1102.73
2023-05-24T07:10:22.329Z,1102.73
2023-05-24T07:11:22.315Z,1102.73
2023-05-24T07:12:22.266Z,1102.73
2023-05-24T07:13:22.239Z,1102.73
2023-05-24T07:14:22.247Z,1102.73
2023-05-24T07:15:22.271Z,1102.73
2023-05-24T07:16:22.216Z,1102.73
2023-05-24T07:17:22.220Z,1102.73
2023-05-24T07:18:22.219Z,1102.73
2023-05-24T07:19:22.149Z,1102.73
2023-05-24T07:20:22.220Z,1102.73
2023-05-24T07:21:22.154Z,1102.73
2023-05-24T07:22:22.121Z,1102.73
2023-05-24T07:23:22.105Z,1102.73
2023-05-24T07:24:22.182Z,1102.73
2023-05-24T07:25:22.121Z,1102.73
2023-05-24T07:26:25.064Z,1102.73
2023-05-24T07:27:25.055Z,1102.73
2023-05-24T07:28:22.054Z,1102.73
2023-05-24T07:29:22.049Z,1102.73
2023-05-24T07:30:31.821Z,1102.73
2023-05-24T07:31:23.012Z,1102.73
2023-05-24T07:32:22.024Z,1102.73
2023-05-24T07:33:22.046Z,1102.73
2023-05-24T07:34:21.987Z,1102.73
2023-05-24T07:35:21.963Z,1102.73
2023-05-24T07:36:21.954Z,1102.73
2023-05-24T07:37:21.947Z,1102.73
2023-05-24T07:38:21.904Z,1102.73
2023-05-24T07:39:21.893Z,1102.73
2023-05-24T07:40:21.875Z,1102.73
2023-05-24T07:41:21.859Z,1102.73
2023-05-24T07:42:21.898Z,1102.73
2023-05-24T07:43:21.840Z,1102.73
2023-05-24T07:44:21.828Z,1102.73
2023-05-24T07:45:21.805Z,1102.73
2023-05-24T07:46:24.826Z,1102.73
2023-05-24T07:47:24.859Z,1102.73
2023-05-24T07:48:21.793Z,1102.73
2023-05-24T07:49:21.759Z,1102.73
2023-05-24T07:50:21.750Z,1102.73
2023-05-24T07:51:21.729Z,1102.73
2023-05-24T07:52:21.788Z,1102.73
2023-05-24T07:53:21.704Z,1102.73
2023-05-24T07:54:21.692Z,1102.73
2023-05-24T07:55:21.720Z,1102.73
2023-05-24T07:56:21.664Z,1102.73
2023-05-24T07:57:21.650Z,1102.73
2023-05-24T07:58:21.676Z,1102.73
2023-05-24T07:59:21.633Z,1102.73
2023-05-24T08:00:21.632Z,1102.73
2023-05-24T08:01:21.603Z,1102.73
2023-05-24T08:02:21.701Z,1102.73
2023-05-24T08:03:21.778Z,1102.73
2023-05-24T08:04:21.568Z,1102.73
2023-05-24T08:05:21.556Z,1102.73
2023-05-24T08:06:24.651Z,1102.73
2023-05-24T08:07:24.641Z,1102.73
2023-05-24T08:08:21.566Z,1102.73
2023-05-24T08:09:21.495Z,1102.73
2023-05-24T08:10:21.526Z,1102.73
2023-05-24T08:11:21.469Z,1102.73
2023-05-24T08:12:21.471Z,1102.73
2023-05-24T08:13:21.450Z,1102.73
2023-05-24T08:14:21.469Z,1102.73
2023-05-24T08:15:21.415Z,1102.73
2023-05-24T08:16:21.492Z,1102.73
2023-05-24T08:17:21.389Z,1102.73
2023-05-24T08:18:21.425Z,1102.73
2023-05-24T08:19:21.361Z,1102.73
2023-05-24T08:20:21.531Z,1102.73
2023-05-24T08:21:21.326Z,1102.73
2023-05-24T08:22:21.319Z,1102.73
2023-05-24T08:23:21.303Z,1102.73
2023-05-24T08:24:21.314Z,1102.73
2023-05-24T08:25:21.295Z,1102.73
2023-05-24T08:26:24.266Z,1102.73
2023-05-24T08:27:24.249Z,1102.73
2023-05-24T08:28:21.306Z,1102.73
2023-05-24T08:29:21.222Z,1102.73
2023-05-24T08:30:21.292Z,1102.73
2023-05-24T08:31:21.212Z,1102.73
2023-05-24T08:32:21.251Z,1102.73
2023-05-24T08:33:21.168Z,1102.73
2023-05-24T08:34:21.192Z,1102.73
2023-05-24T08:35:22.078Z,1102.73
2023-05-24T08:36:21.129Z,1102.73
2023-05-24T08:37:21.121Z,1102.73
2023-05-24T08:38:21.280Z,1102.73
2023-05-24T08:39:21.091Z,1102.73
2023-05-24T08:40:21.172Z,1102.73
2023-05-24T08:41:21.082Z,1102.73
2023-05-24T08:42:21.087Z,1102.73
2023-05-24T08:43:21.066Z,1102.73
2023-05-24T08:44:21.022Z,1102.73
2023-05-24T08:45:21.014Z,1102.73
2023-05-24T08:46:24.014Z,1102.73
2023-05-24T08:47:24.038Z,1102.73
2023-05-24T08:48:21.175Z,1102.73
2023-05-24T08:49:20.959Z,1102.73
2023-05-24T08:50:20.953Z,1102.73
2023-05-24T08:51:20.934Z,1102.73
2023-05-24T08:52:20.920Z,1102.73
2023-05-24T08:53:20.921Z,1102.73
2023-05-24T08:54:20.900Z,1102.73
2023-05-24T08:55:20.862Z,1102.73
2023-05-24T08:56:20.860Z,1102.73
2023-05-24T08:57:20.852Z,1102.73
2023-05-24T08:58:20.898Z,1102.73
2023-05-24T08:59:20.818Z,1102.73
2023-05-24T09:00:20.798Z,1102.73
2023-05-24T09:01:20.810Z,1102.73
2023-05-24T09:02:20.776Z,1102.73
2023-05-24T09:03:20.849Z,1102.73
2023-05-24T09:04:20.869Z,1102.73
2023-05-24T09:05:20.751Z,1102.73
2023-05-24T09:06:23.703Z,1102.73
2023-05-24T09:07:23.704Z,1102.73
2023-05-24T09:08:20.682Z,1102.73
2023-05-24T09:09:20.737Z,1102.73
2023-05-24T09:10:20.706Z,1102.73
2023-05-24T09:11:20.738Z,1102.73
2023-05-24T09:12:35.449Z,1102.73
2023-05-24T09:13:21.677Z,1102.73
2023-05-24T09:14:20.600Z,1102.73
2023-05-24T09:15:20.600Z,1102.73
2023-05-24T09:16:20.649Z,1102.73
2023-05-24T09:17:20.552Z,1102.73
2023-05-24T09:18:20.577Z,1102.73
2023-05-24T09:19:20.525Z,1102.73
2023-05-24T09:20:20.566Z,1102.73
2023-05-24T09:21:20.499Z,1102.73
2023-05-24T09:22:20.521Z,1102.73
2023-05-24T09:23:20.466Z,1102.73
2023-05-24T09:24:20.442Z,1102.73
2023-05-24T09:25:20.434Z,1102.73
2023-05-24T09:26:23.426Z,1102.73
2023-05-24T09:27:23.425Z,1102.73
2023-05-24T09:28:20.396Z,1102.73
2023-05-24T09:29:20.395Z,1102.73
2023-05-24T09:30:20.432Z,1102.73
2023-05-24T09:31:20.501Z,1102.73
2023-05-24T09:32:20.414Z,1102.73
2023-05-24T09:33:20.312Z,1102.73
2023-05-24T09:34:20.323Z,1102.73
2023-05-24T09:35:20.278Z,1102.73
2023-05-24T09:36:20.304Z,1102.73
2023-05-24T09:37:20.376Z,1102.73
2023-05-24T09:38:20.282Z,1102.73
2023-05-24T09:39:20.225Z,1102.73
2023-05-24T09:40:20.676Z,1102.73
2023-05-24T09:41:20.204Z,1102.73
2023-05-24T09:42:20.181Z,1102.73
2023-05-24T09:43:20.169Z,1102.73
2023-05-24T09:44:20.200Z,1102.73
2023-05-24T09:45:20.134Z,1102.73
2023-05-24T09:46:23.200Z,1102.73
2023-05-24T09:47:23.168Z,1102.73
2023-05-24T09:48:20.165Z,1101.50
2023-05-24T09:49:20.080Z,1102.60
2023-05-24T09:50:20.151Z,1102.73
2023-05-24T09:51:20.080Z,1102.55
2023-05-24T09:52:20.032Z,1094.69
2023-05-24T09:53:20.053Z,1087.32
2023-05-24T09:54:20.032Z,1094.19
2023-05-24T09:55:19.990Z,1095.83
2023-05-24T09:56:20.013Z,1099.24
2023-05-24T09:57:20.051Z,1102.73
2023-05-24T09:58:19.954Z,1100.13
2023-05-24T09:59:19.971Z,1099.01
2023-05-24T10:00:20.006Z,1095.33
2023-05-24T10:01:20.116Z,1092.28
2023-05-24T10:02:19.892Z,1091.17
2023-05-24T10:03:19.930Z,1098.09
2023-05-24T10:04:19.999Z,1100.12
2023-05-24T10:05:19.880Z,1101.35
2023-05-24T10:06:22.872Z,1095.18
2023-05-24T10:07:22.835Z,1085.38
2023-05-24T10:08:19.818Z,1079.05
2023-05-24T10:09:19.797Z,1067.50
2023-05-24T10:10:19.814Z,1054.37
2023-05-24T10:11:19.769Z,1061.68
2023-05-24T10:12:19.765Z,1062.58
2023-05-24T10:13:19.745Z,1052.88
2023-05-24T10:14:19.739Z,1077.35
2023-05-24T10:15:19.738Z,1097.64
2023-05-24T10:16:19.746Z,1094.92
2023-05-24T10:17:19.706Z,1098.67
2023-05-24T10:18:19.715Z,1099.10
2023-05-24T10:19:19.670Z,1100.76
2023-05-24T10:20:19.734Z,1097.44
2023-05-24T10:21:19.669Z,1096.30
2023-05-24T10:22:19.657Z,1099.64
2023-05-24T10:23:19.610Z,1101.55
2023-05-24T10:24:19.598Z,1098.53
2023-05-24T10:25:19.604Z,1097.80
2023-05-24T10:26:22.579Z,1102.34
2023-05-24T10:27:22.591Z,1097.09
2023-05-24T10:28:19.548Z,1099.06
2023-05-24T10:29:19.524Z,1095.81
2023-05-24T10:30:19.599Z,1098.17
2023-05-24T10:31:19.638Z,1092.53
2023-05-24T10:32:19.523Z,1096.04
2023-05-24T10:33:19.491Z,1096.47
2023-05-24T10:34:19.454Z,1099.31
2023-05-24T10:35:19.458Z,1097.22
2023-05-24T10:36:19.476Z,1102.73
2023-05-24T10:37:19.413Z,1101.69
2023-05-24T10:38:19.396Z,1101.30
2023-05-24T10:39:19.393Z,1102.73
2023-05-24T10:40:19.369Z,1102.73
2023-05-24T10:41:19.427Z,1102.73
2023-05-24T10:42:19.345Z,1102.73
2023-05-24T10:43:19.326Z,1102.73
2023-05-24T10:44:19.374Z,1102.73
2023-05-24T10:45:19.319Z,1102.73
2023-05-24T10:46:22.350Z,1102.73
2023-05-24T10:47:22.303Z,1102.73
2023-05-24T10:48:19.342Z,1102.73
2023-05-24T10:49:19.257Z,1102.73
2023-05-24T10:50:19.247Z,1102.73
2023-05-24T10:51:19.221Z,1102.73
2023-05-24T10:52:19.209Z,1102.73
2023-05-24T10:53:19.223Z,1102.73
2023-05-24T10:54:19.230Z,1102.73
2023-05-24T10:55:19.170Z,1102.73
2023-05-24T10:56:19.147Z,1102.73
2023-05-24T10:57:19.139Z,1102.73
2023-05-24T10:58:19.111Z,1102.73
2023-05-24T10:59:19.134Z,1102.73
2023-05-24T11:00:33.367Z,1102.73
2023-05-24T11:01:20.153Z,1102.73
2023-05-24T11:02:19.246Z,1102.73
2023-05-24T11:03:19.061Z,1102.73
2023-05-24T11:04:19.059Z,1102.73
2023-05-24T11:05:19.042Z,1102.73
2023-05-24T11:06:22.006Z,1102.73
2023-05-24T11:07:22.004Z,1102.73
2023-05-24T11:08:18.997Z,1102.73
2023-05-24T11:09:19.013Z,1102.73
2023-05-24T11:10:18.960Z,1102.73
2023-05-24T11:11:26.793Z,1102.73
2023-05-24T11:12:19.954Z,1102.73
2023-05-24T11:13:18.936Z,1102.73
2023-05-24T11:14:18.957Z,1102.73
2023-05-24T11:15:18.901Z,1102.73
2023-05-24T11:16:18.943Z,1102.73
2023-05-24T11:17:18.864Z,1102.73
2023-05-24T11:18:18.884Z,1102.73
2023-05-24T11:19:18.855Z,1102.73
2023-05-24T11:20:18.862Z,1102.73
2023-05-24T11:21:18.809Z,1102.73
2023-05-24T11:22:18.805Z,1102.73
2023-05-24T11:23:18.809Z,1102.73
2023-05-24T11:24:18.797Z,1102.73
2023-05-24T11:25:18.743Z,1102.73
2023-05-24T11:26:21.723Z,1102.73
2023-05-24T11:27:21.800Z,1102.73
2023-05-24T11:28:18.724Z,1102.73
2023-05-24T11:29:18.706Z,1102.73
2023-05-24T11:30:18.662Z,1102.73
2023-05-24T11:31:18.804Z,1102.73
2023-05-24T11:32:18.920Z,1102.73
2023-05-24T11:33:18.695Z,1102.73
2023-05-24T11:34:18.609Z,1102.73
2023-05-24T11:35:18.602Z,1102.73
2023-05-24T11:36:18.587Z,1102.73
2023-05-24T11:37:19.048Z,1102.73
2023-05-24T11:38:18.565Z,1102.73
2023-05-24T11:39:18.576Z,1102.73
2023-05-24T11:40:18.528Z,1102.73
2023-05-24T11:41:18.512Z,1102.73
2023-05-24T11:42:18.523Z,1102.73
2023-05-24T11:43:18.478Z,1102.73
2023-05-24T11:44:18.466Z,1102.73
2023-05-24T11:45:18.455Z,1102.73
2023-05-24T11:46:21.518Z,1102.73
2023-05-24T11:47:21.486Z,1102.73
2023-05-24T11:48:18.552Z,1102.73
2023-05-24T11:49:18.419Z,1102.73
2023-05-24T11:50:18.381Z,1102.73
2023-05-24T11:51:18.520Z,1102.73
2023-05-24T11:52:18.412Z,1102.73
2023-05-24T11:53:18.345Z,1102.73
2023-05-24T11:54:18.334Z,1102.73
2023-05-24T11:55:18.322Z,1102.73
2023-05-24T11:56:18.293Z,1102.73
2023-05-24T11:57:18.281Z,1102.73
2023-05-24T11:58:18.290Z,1102.73
2023-05-24T11:59:18.258Z,1102.73
2023-05-24T12:00:18.260Z,1102.73
2023-05-24T12:01:18.250Z,1102.73
2023-05-24T12:02:18.278Z,1102.73
2023-05-24T12:03:18.308Z,1102.73
2023-05-24T12:04:18.310Z,1102.73
2023-05-24T12:05:18.168Z,1102.73